Time;durP1;ratioP1;P1;durP2;ratioP2;P2;SDS_P1;SDS_P2;PMS_P1;PMS_P2;Temp;Humidity;BMP_temperature;BMP_pressure;BME280_temperature;BME280_humidity;BME280_pressure;Samples;Min_cycle;Max_cycle;Signal;HPM_P1;HPM_P2
2022/09/27 00:01:35;;;;;;;3.25;1.13;;;17.10;72.90;;;;;;10368285;28;20480;-60
2022/09/27 00:06:36;;;;;;;2.83;1.00;;;17.10;72.90;;;;;;10390341;28;20097;-60
2022/09/27 00:11:41;;;;;;;2.47;1.42;;;17.20;72.90;;;;;;10367006;28;20022;-60
2022/09/27 00:16:43;;;;;;;3.05;1.20;;;17.10;72.80;;;;;;10367130;28;20424;-60
2022/09/27 00:21:45;;;;;;;3.47;1.10;;;17.10;72.80;;;;;;10378444;28;20058;-60
2022/09/27 00:26:47;;;;;;;2.13;1.20;;;17.10;72.80;;;;;;10365560;28;20022;-60
2022/09/27 00:31:48;;;;;;;2.35;1.02;;;17.10;72.70;;;;;;10370479;28;20063;-60
2022/09/27 00:36:50;;;;;;;1.92;0.88;;;17.10;72.80;;;;;;10389972;28;20040;-60
2022/09/27 00:41:50;;;;;;;2.22;0.95;;;17.10;72.70;;;;;;10364969;28;20654;-60
2022/09/27 00:47:22;;;;;;;3.97;1.00;;;17.10;72.70;;;;;;10379006;28;20053;-60
2022/09/27 00:52:30;;;;;;;2.03;0.82;;;17.10;72.70;;;;;;10349613;28;20014;-60
2022/09/27 00:57:30;;;;;;;4.93;1.05;;;17.10;72.70;;;;;;10366028;28;20028;-60
2022/09/27 01:02:32;;;;;;;1.23;0.77;;;17.10;72.60;;;;;;10365316;28;20040;-60
2022/09/27 01:07:33;;;;;;;1.90;0.73;;;17.10;72.60;;;;;;10380815;28;20030;-60
2022/09/27 01:13:17;;;;;;;1.75;1.10;;;17.10;72.70;;;;;;10364894;28;20112;-61
2022/09/27 01:18:47;;;;;;;2.22;1.02;;;17.10;72.70;;;;;;10365632;28;20021;-60
2022/09/27 01:24:36;;;;;;;2.08;1.70;;;17.00;72.60;;;;;;10365190;28;20033;-60
2022/09/27 01:30:10;;;;;;;1.42;0.73;;;17.00;72.50;;;;;;10377756;28;20519;-60
2022/09/27 01:35:47;;;;;;;2.30;0.70;;;17.00;72.50;;;;;;10363975;28;20117;-60
2022/09/27 01:41:00;;;;;;;1.75;0.93;;;17.00;72.40;;;;;;10363605;28;20370;-60
2022/09/27 01:46:13;;;;;;;2.45;1.13;;;17.00;72.40;;;;;;10362767;28;20053;-60
2022/09/27 01:51:24;;;;;;;1.58;0.80;;;17.00;72.30;;;;;;10362521;28;20026;-60
2022/09/27 01:56:49;;;;;;;2.03;0.88;;;17.00;72.40;;;;;;10363632;28;20104;-60
2022/09/27 02:01:51;;;;;;;3.38;0.70;;;17.00;72.30;;;;;;10362621;28;20041;-61
2022/09/27 02:06:59;;;;;;;1.17;0.82;;;17.00;72.30;;;;;;10371960;28;20033;-60
2022/09/27 02:12:10;;;;;;;3.45;1.58;;;17.00;72.90;;;;;;10363091;28;20030;-60
2022/09/27 02:18:00;;;;;;;3.28;1.02;;;17.00;72.30;;;;;;10362857;28;20068;-60
2022/09/27 02:23:24;;;;;;;1.80;0.73;;;17.00;72.30;;;;;;10363592;28;20041;-60
2022/09/27 02:28:39;;;;;;;0.98;0.70;;;17.00;72.20;;;;;;10364922;28;20025;-60
2022/09/27 02:33:51;;;;;;;1.25;0.63;;;17.00;72.20;;;;;;10369983;28;20026;-61
2022/09/27 02:38:51;;;;;;;2.67;0.80;;;17.00;72.20;;;;;;10362239;28;20065;-60
2022/09/27 02:44:01;;;;;;;2.38;0.60;;;17.00;72.20;;;;;;10361357;28;20042;-60
2022/09/27 02:49:36;;;;;;;1.60;0.80;;;17.00;72.10;;;;;;10380510;28;20164;-60
2022/09/27 02:55:10;;;;;;;1.65;0.80;;;17.00;72.10;;;;;;10361275;28;20033;-60
2022/09/27 03:00:23;;;;;;;3.65;1.00;;;16.90;71.80;;;;;;10372213;28;20026;-60
2022/09/27 03:05:32;;;;;;;3.65;0.90;;;16.90;71.80;;;;;;10374807;28;20057;-60
2022/09/27 03:10:33;;;;;;;1.70;0.83;;;16.90;71.80;;;;;;10369041;28;20032;-60
2022/09/27 03:15:33;;;;;;;1.63;0.60;;;16.90;71.90;;;;;;10368688;28;20280;-60
2022/09/27 03:20:34;;;;;;;0.70;0.40;;;16.90;71.90;;;;;;10369894;28;20028;-61
2022/09/27 03:25:35;;;;;;;0.90;0.40;;;16.90;71.90;;;;;;10368575;28;21134;-60
2022/09/27 03:30:36;;;;;;;1.38;0.52;;;16.90;71.80;;;;;;10369855;28;20107;-60
2022/09/27 03:35:37;;;;;;;2.33;0.75;;;16.90;71.90;;;;;;10369509;28;20084;-60
2022/09/27 03:40:38;;;;;;;1.10;0.60;;;16.90;71.80;;;;;;10368971;28;20053;-60
2022/09/27 03:45:39;;;;;;;1.67;0.50;;;16.90;71.90;;;;;;10380705;28;20030;-61
2022/09/27 03:50:39;;;;;;;2.08;0.50;;;16.90;71.80;;;;;;10381903;28;20022;-60
2022/09/27 03:55:40;;;;;;;1.63;0.77;;;16.90;71.90;;;;;;10378774;28;20053;-60
2022/09/27 04:00:42;;;;;;;2.00;0.50;;;16.90;71.80;;;;;;10365670;28;20109;-60
2022/09/27 04:05:44;;;;;;;2.08;0.60;;;16.90;72.00;;;;;;10378662;28;20034;-60
2022/09/27 04:10:45;;;;;;;2.70;0.70;;;16.90;72.50;;;;;;10384619;28;20006;-59
2022/09/27 04:15:45;;;;;;;2.10;0.70;;;16.90;72.60;;;;;;10389545;28;20060;-60
2022/09/27 04:20:46;;;;;;;1.17;0.70;;;16.90;72.50;;;;;;10367484;28;20044;-60
2022/09/27 04:25:47;;;;;;;1.38;0.43;;;16.90;72.40;;;;;;10371222;28;20140;-60
2022/09/27 04:30:47;;;;;;;1.05;0.40;;;16.90;72.30;;;;;;10383566;28;20101;-60
2022/09/27 04:41:08;;;;;;;3.78;1.05;;;16.90;72.40;;;;;;10365949;28;20057;-60
2022/09/27 04:46:08;;;;;;;2.83;0.45;;;16.80;72.40;;;;;;10366715;28;20030;-60
2022/09/27 04:51:09;;;;;;;2.03;0.52;;;16.90;72.40;;;;;;10373415;28;20396;-60
2022/09/27 04:56:12;;;;;;;3.88;1.02;;;16.90;72.50;;;;;;10365213;28;20022;-59
2022/09/27 05:01:13;;;;;;;5.60;0.70;;;16.90;72.40;;;;;;10364809;28;20397;-60
2022/09/27 05:06:13;;;;;;;2.72;0.50;;;16.90;72.70;;;;;;10383768;28;20073;-60
2022/09/27 05:11:14;;;;;;;3.03;0.60;;;17.00;72.80;;;;;;10382746;28;20105;-60
2022/09/27 05:16:15;;;;;;;5.25;1.00;;;17.00;73.10;;;;;;10380892;28;20053;-60
2022/09/27 05:21:16;;;;;;;4.70;1.00;;;17.10;73.20;;;;;;10380595;28;20650;-60
2022/09/27 05:26:17;;;;;;;6.82;0.85;;;17.00;73.40;;;;;;10363213;28;20066;-60
2022/09/27 05:31:17;;;;;;;7.45;1.60;;;17.00;73.10;;;;;;10375211;28;20052;-63
2022/09/27 05:36:18;;;;;;;27.88;2.70;;;17.00;72.90;;;;;;10365307;28;20083;-61
2022/09/27 05:41:19;;;;;;;8.02;1.48;;;17.00;73.20;;;;;;10362117;28;20144;-61
2022/09/27 05:46:20;;;;;;;12.80;1.42;;;16.90;73.20;;;;;;10393664;28;20042;-61
2022/09/27 05:51:20;;;;;;;7.25;1.40;;;17.00;73.30;;;;;;10365054;28;20097;-61
2022/09/27 05:56:21;;;;;;;7.13;1.42;;;16.90;73.30;;;;;;10363932;28;20058;-60
2022/09/27 06:01:21;;;;;;;8.38;1.48;;;16.90;73.20;;;;;;10363210;28;20084;-60
2022/09/27 06:06:22;;;;;;;10.45;2.97;;;16.90;73.20;;;;;;10373475;28;20073;-60
2022/09/27 06:11:24;;;;;;;8.20;1.65;;;16.90;73.40;;;;;;10377540;28;20142;-59
2022/09/27 06:16:24;;;;;;;16.40;4.25;;;16.90;73.80;;;;;;10363148;28;20021;-61
2022/09/27 06:21:26;;;;;;;8.52;1.77;;;16.90;73.20;;;;;;10379543;28;20030;-60
2022/09/27 06:26:27;;;;;;;8.40;1.55;;;17.00;73.00;;;;;;10372775;28;20097;-60
2022/09/27 06:31:27;;;;;;;8.43;1.58;;;16.90;73.00;;;;;;10371407;28;20456;-60
2022/09/27 06:36:28;;;;;;;7.65;2.13;;;16.90;72.80;;;;;;10386527;28;20037;-61
2022/09/27 06:41:29;;;;;;;5.88;1.10;;;16.90;73.20;;;;;;10366441;28;20129;-60
2022/09/27 06:46:29;;;;;;;4.93;0.70;;;16.90;73.30;;;;;;10367211;28;20113;-59
2022/09/27 06:51:30;;;;;;;5.97;1.98;;;16.90;73.30;;;;;;10369495;28;20052;-59
2022/09/27 06:56:31;;;;;;;5.13;0.95;;;16.80;72.80;;;;;;10370378;28;20101;-58
2022/09/27 07:01:31;;;;;;;5.00;0.90;;;16.80;72.80;;;;;;10370880;28;20061;-58
2022/09/27 07:06:33;;;;;;;6.88;0.88;;;16.90;73.40;;;;;;10374320;28;20457;-58
2022/09/27 07:11:39;;;;;;;5.18;1.02;;;16.80;72.70;;;;;;10370029;28;20559;-58
2022/09/27 07:16:39;;;;;;;3.63;1.50;;;16.80;72.70;;;;;;10368196;28;20412;-59
2022/09/27 07:21:40;;;;;;;4.43;0.88;;;16.80;72.70;;;;;;10369440;28;20046;-58
2022/09/27 07:26:40;;;;;;;7.07;1.58;;;16.80;72.60;;;;;;10369624;28;20559;-59
2022/09/27 07:31:41;;;;;;;3.50;1.02;;;16.80;72.60;;;;;;10369914;28;20744;-59
2022/09/27 07:36:42;;;;;;;4.28;0.90;;;16.80;72.60;;;;;;10369998;28;20153;-59
2022/09/27 07:41:42;;;;;;;8.32;1.17;;;16.80;72.60;;;;;;10367939;28;20046;-58
2022/09/27 07:46:43;;;;;;;3.17;1.20;;;16.80;72.60;;;;;;10369178;28;20097;-58
2022/09/27 07:51:44;;;;;;;2.88;0.93;;;16.80;72.60;;;;;;10379424;28;20541;-58
2022/09/27 07:56:44;;;;;;;1.83;0.60;;;16.70;72.50;;;;;;10359416;28;20054;-58
2022/09/27 08:01:45;;;;;;;6.00;0.80;;;16.80;72.50;;;;;;10350584;28;20032;-58
2022/09/27 08:06:46;;;;;;;4.57;1.08;;;16.80;72.50;;;;;;10378592;28;20022;-59
2022/09/27 08:11:47;;;;;;;3.65;1.05;;;16.80;72.50;;;;;;10366953;28;20026;-58
2022/09/27 08:16:48;;;;;;;2.85;0.60;;;16.70;72.50;;;;;;10383704;28;20068;-59
2022/09/27 08:21:53;;;;;;;2.15;0.55;;;16.80;72.40;;;;;;10366820;28;20049;-59
2022/09/27 08:26:54;;;;;;;6.25;0.80;;;16.80;72.40;;;;;;10367590;28;20022;-59
2022/09/27 08:31:55;;;;;;;1.92;0.50;;;16.80;72.30;;;;;;10365382;28;20036;-58
2022/09/27 08:36:55;;;;;;;3.28;0.75;;;16.70;72.40;;;;;;10367187;28;20049;-59
2022/09/27 08:42:45;;;;;;;1.10;0.38;;;16.80;72.60;;;;;;10362629;28;20069;-58
2022/09/27 08:47:53;;;;;;;3.33;0.87;;;16.80;72.40;;;;;;10351906;28;20476;-58
2022/09/27 08:53:07;;;;;;;4.72;0.70;;;16.80;72.40;;;;;;10368408;28;20030;-58
2022/09/27 08:58:28;;;;;;;3.17;0.55;;;16.80;72.30;;;;;;10368657;28;20555;-58
2022/09/27 09:03:54;;;;;;;2.08;0.70;;;16.70;72.30;;;;;;10375633;28;20037;-58
2022/09/27 09:09:37;;;;;;;2.35;0.70;;;16.70;72.30;;;;;;10366457;28;20017;-57
2022/09/27 09:15:00;;;;;;;1.95;0.40;;;16.70;72.30;;;;;;10367289;28;20041;-58
2022/09/27 09:20:33;;;;;;;1.60;0.50;;;16.70;72.30;;;;;;10365512;28;20014;-58
2022/09/27 09:26:04;;;;;;;1.45;0.50;;;16.80;72.30;;;;;;10367666;28;20041;-58
2022/09/27 09:31:46;;;;;;;1.40;0.60;;;16.70;72.40;;;;;;10380511;28;20443;-58
2022/09/27 09:37:02;;;;;;;4.68;1.20;;;16.70;72.40;;;;;;10359636;28;20018;-57
2022/09/27 09:42:28;;;;;;;2.88;0.77;;;16.70;72.40;;;;;;10367458;28;20430;-58
2022/09/27 09:47:39;;;;;;;2.80;0.80;;;16.70;72.30;;;;;;10366943;28;20061;-57
2022/09/27 09:52:48;;;;;;;2.67;0.93;;;16.70;72.30;;;;;;10354131;28;20028;-57
2022/09/27 09:58:01;;;;;;;1.77;0.60;;;16.70;72.30;;;;;;10365257;28;20030;-58
2022/09/27 10:03:02;;;;;;;2.28;0.93;;;16.70;72.20;;;;;;10371778;28;20049;-58
2022/09/27 10:08:10;;;;;;;2.65;0.40;;;16.70;72.20;;;;;;10365706;28;20025;-58
2022/09/27 10:13:20;;;;;;;1.67;0.50;;;16.70;72.10;;;;;;10366380;28;20109;-58
2022/09/27 10:18:21;;;;;;;1.08;0.40;;;16.70;72.20;;;;;;10364235;28;20026;-57
2022/09/27 10:23:24;;;;;;;2.42;0.50;;;16.70;72.20;;;;;;10365431;28;20030;-58
2022/09/27 10:28:40;;;;;;;1.67;0.60;;;16.70;72.10;;;;;;10364718;28;20052;-57
2022/09/27 10:34:26;;;;;;;1.45;0.43;;;16.70;72.10;;;;;;10359519;28;20402;-58
2022/09/27 10:39:27;;;;;;;1.50;0.80;;;16.70;72.00;;;;;;10356719;28;20389;-58
2022/09/27 10:44:33;;;;;;;1.50;0.40;;;16.70;72.10;;;;;;10360631;28;20038;-59
2022/09/27 10:49:40;;;;;;;2.42;0.80;;;16.70;72.10;;;;;;10361639;28;20018;-58
2022/09/27 10:54:51;;;;;;;1.30;0.50;;;16.70;72.00;;;;;;10359735;28;20041;-58
2022/09/27 11:00:01;;;;;;;3.75;0.50;;;16.70;72.00;;;;;;10361176;28;20018;-58
2022/09/27 11:05:13;;;;;;;1.85;0.70;;;16.80;72.70;;;;;;10360613;28;20034;-58
2022/09/27 11:10:32;;;;;;;1.75;0.43;;;16.70;73.40;;;;;;10364810;28;20165;-57
2022/09/27 11:16:29;;;;;;;2.13;0.73;;;16.80;73.40;;;;;;10383853;28;20102;-59
2022/09/27 11:22:00;;;;;;;1.75;0.43;;;16.80;73.40;;;;;;10366848;28;20473;-58
2022/09/27 11:27:53;;;;;;;4.78;0.70;;;16.80;73.50;;;;;;10368932;28;20076;-58
2022/09/27 11:33:17;;;;;;;5.13;0.93;;;16.80;73.20;;;;;;10369852;28;20046;-57
2022/09/27 11:38:41;;;;;;;2.15;0.60;;;16.80;73.30;;;;;;10367304;28;20069;-58
2022/09/27 11:44:34;;;;;;;2.85;1.00;;;16.80;73.10;;;;;;10366813;28;20062;-57
2022/09/27 11:50:03;;;;;;;7.07;0.60;;;16.80;73.30;;;;;;10367002;28;20624;-57
2022/09/27 11:55:14;;;;;;;4.57;0.60;;;16.80;73.30;;;;;;10367141;28;20061;-58
2022/09/27 12:00:59;;;;;;;1.83;0.47;;;16.80;72.90;;;;;;10365670;28;20060;-58
2022/09/27 12:06:24;;;;;;;5.60;0.45;;;16.80;72.90;;;;;;10367526;28;20030;-58
2022/09/27 12:11:51;;;;;;;2.97;0.40;;;16.70;72.80;;;;;;10368105;28;20026;-58
2022/09/27 12:16:54;;;;;;;1.27;0.35;;;16.70;72.90;;;;;;10355738;28;20050;-59
2022/09/27 12:22:01;;;;;;;25.75;2.75;;;16.80;73.00;;;;;;10367309;28;20046;-59
2022/09/27 12:27:22;;;;;;;46.75;5.82;;;16.70;73.50;;;;;;10367436;28;20022;-57
2022/09/27 12:32:51;;;;;;;22.60;3.78;;;16.80;73.80;;;;;;10366233;28;20516;-55
2022/09/27 12:38:03;;;;;;;14.15;2.35;;;16.80;73.80;;;;;;10367572;28;20107;-58
2022/09/27 12:43:28;;;;;;;34.03;5.20;;;16.90;74.00;;;;;;10366475;28;20033;-57
2022/09/27 12:49:06;;;;;;;19.15;3.13;;;16.90;73.90;;;;;;10366352;28;20022;-58
2022/09/27 12:54:12;;;;;;;16.58;3.40;;;16.90;74.20;;;;;;10362439;28;20061;-58
2022/09/27 12:59:15;;;;;;;30.88;5.20;;;17.00;74.20;;;;;;10365494;28;20109;-57
2022/09/27 13:04:53;;;;;;;24.73;3.42;;;16.90;74.20;;;;;;10367033;28;20029;-60
2022/09/27 13:10:32;;;;;;;35.25;7.40;;;17.00;74.30;;;;;;10363670;28;20763;-60
2022/09/27 13:15:35;;;;;;;29.40;4.65;;;17.10;74.30;;;;;;10364550;28;20495;-59
2022/09/27 13:20:35;;;;;;;21.08;4.15;;;17.10;74.10;;;;;;10363821;28;20026;-60
2022/09/27 13:25:56;;;;;;;19.65;3.13;;;17.00;74.10;;;;;;10365327;28;20026;-60
2022/09/27 13:31:08;;;;;;;39.38;5.25;;;17.00;74.70;;;;;;10377084;28;20026;-59
2022/09/27 13:36:31;;;;;;;25.45;4.63;;;17.10;74.70;;;;;;10365014;28;20034;-60
2022/09/27 13:42:04;;;;;;;23.15;3.95;;;17.10;75.20;;;;;;10363614;28;20049;-61
2022/09/27 13:47:35;;;;;;;22.85;4.07;;;17.00;74.70;;;;;;10360323;28;20072;-61
2022/09/27 13:52:37;;;;;;;21.15;3.45;;;17.00;74.50;;;;;;10362832;28;20071;-60
2022/09/27 13:57:50;;;;;;;26.27;3.78;;;17.00;75.10;;;;;;10361932;28;20029;-61
2022/09/27 14:03:11;;;;;;;38.58;4.07;;;17.10;73.80;;;;;;10352248;28;20632;-59
2022/09/27 14:08:53;;;;;;;19.33;2.17;;;17.10;73.60;;;;;;10353319;28;20409;-60
2022/09/27 14:13:54;;;;;;;14.80;2.30;;;17.00;73.20;;;;;;10377384;28;20022;-61
2022/09/27 14:18:58;;;;;;;14.77;1.60;;;17.00;73.50;;;;;;10361724;28;20014;-59
2022/09/27 14:24:23;;;;;;;11.50;2.25;;;17.00;73.20;;;;;;10346840;28;20033;-61
2022/09/27 14:29:25;;;;;;;11.00;2.00;;;17.00;73.00;;;;;;10362103;28;20124;-62
2022/09/27 14:34:26;;;;;;;6.95;1.25;;;17.00;73.20;;;;;;10362278;28;20018;-61
2022/09/27 14:39:34;;;;;;;8.93;1.27;;;17.00;72.80;;;;;;10363053;28;20121;-60
2022/09/27 14:44:35;;;;;;;9.88;1.95;;;17.00;72.50;;;;;;10366112;28;20362;-61
2022/09/27 14:50:09;;;;;;;3.75;1.17;;;17.00;72.30;;;;;;10369171;28;20018;-61
2022/09/27 14:55:19;;;;;;;4.78;0.73;;;17.00;72.30;;;;;;10360779;28;20104;-62
2022/09/27 15:00:31;;;;;;;6.85;1.67;;;17.00;75.10;;;;;;10367257;28;20362;-61
2022/09/27 15:05:33;;;;;;;9.95;1.02;;;17.20;73.60;;;;;;10369471;28;20038;-58
2022/09/27 15:10:36;;;;;;;7.85;1.08;;;17.30;74.70;;;;;;10383578;28;20072;-59
2022/09/27 15:15:38;;;;;;;7.57;1.27;;;17.20;74.50;;;;;;10382926;28;20063;-59
2022/09/27 15:20:52;;;;;;;3.08;1.42;;;17.20;74.70;;;;;;10371686;28;20053;-59
2022/09/27 15:26:16;;;;;;;7.88;1.30;;;17.10;74.60;;;;;;10381952;28;20042;-58
2022/09/27 15:31:31;;;;;;;5.60;1.02;;;17.10;74.40;;;;;;10370466;28;20026;-59
2022/09/27 15:36:54;;;;;;;2.42;0.60;;;17.10;74.20;;;;;;10368819;28;20032;-61
2022/09/27 15:42:09;;;;;;;3.60;0.65;;;17.10;74.20;;;;;;10383454;28;20629;-59
2022/09/27 15:47:37;;;;;;;2.53;0.45;;;17.10;74.00;;;;;;10368660;28;20085;-59
2022/09/27 15:52:46;;;;;;;3.47;0.85;;;17.00;73.80;;;;;;10369273;28;20108;-63
2022/09/27 15:57:51;;;;;;;6.23;1.70;;;17.00;73.70;;;;;;10364251;28;20022;-62
2022/09/27 16:02:52;;;;;;;10.20;5.40;;;17.20;73.80;;;;;;10365063;28;20159;-63
2022/09/27 16:07:53;;;;;;;14.38;6.65;;;17.50;75.80;;;;;;10367384;28;20026;-68
2022/09/27 16:12:54;;;;;;;12.73;5.40;;;17.70;76.00;;;;;;10373814;28;20041;-64
2022/09/27 16:17:56;;;;;;;15.18;5.45;;;17.70;76.70;;;;;;10388890;28;20054;-61
2022/09/27 16:22:57;;;;;;;12.32;5.88;;;17.70;78.70;;;;;;10367510;28;20495;-63
2022/09/27 16:28:00;;;;;;;12.13;5.72;;;17.60;77.70;;;;;;10368664;28;20034;-62
2022/09/27 16:33:02;;;;;;;12.93;4.68;;;17.50;77.90;;;;;;10366400;28;20679;-63
2022/09/27 16:38:02;;;;;;;7.20;4.78;;;17.50;78.10;;;;;;10380724;28;20136;-64
2022/09/27 16:43:05;;;;;;;21.60;5.75;;;17.40;77.90;;;;;;10381745;28;20061;-62
2022/09/27 16:48:06;;;;;;;10.13;3.88;;;17.40;77.70;;;;;;10366241;28;20058;-62
2022/09/27 16:53:07;;;;;;;11.35;4.07;;;17.40;76.50;;;;;;10382427;28;20113;-63
2022/09/27 16:58:08;;;;;;;9.75;3.58;;;17.50;77.00;;;;;;10364386;28;20061;-62
2022/09/27 17:03:09;;;;;;;11.93;3.30;;;17.50;76.80;;;;;;10382056;28;20030;-62
2022/09/27 17:08:09;;;;;;;9.38;2.78;;;17.40;76.70;;;;;;10378273;28;20438;-59
2022/09/27 17:13:10;;;;;;;14.10;3.58;;;17.40;76.70;;;;;;10372804;28;20014;-62
2022/09/27 17:18:11;;;;;;;11.27;3.03;;;17.40;76.30;;;;;;10370395;28;20083;-64
2022/09/27 17:23:12;;;;;;;11.85;3.85;;;17.40;76.40;;;;;;10365237;28;20493;-60
2022/09/27 17:28:13;;;;;;;17.35;3.42;;;17.30;76.10;;;;;;10363697;28;20124;-62
2022/09/27 17:33:13;;;;;;;11.82;2.63;;;17.30;76.30;;;;;;10362848;28;20040;-62
2022/09/27 17:38:14;;;;;;;13.07;3.97;;;17.20;76.20;;;;;;10376169;28;20085;-62
2022/09/27 17:43:15;;;;;;;12.65;2.67;;;17.20;76.30;;;;;;10361388;28;20500;-61
2022/09/27 17:53:36;;;;;;;14.60;3.23;;;17.10;76.20;;;;;;10370563;28;20030;-62
2022/09/27 17:58:37;;;;;;;9.40;2.10;;;17.10;75.80;;;;;;10357371;28;20418;-62
2022/09/27 18:03:38;;;;;;;12.52;3.05;;;17.00;75.70;;;;;;10368632;28;20760;-62
2022/09/27 18:08:39;;;;;;;13.95;2.63;;;17.00;75.70;;;;;;10363414;28;20014;-62
2022/09/27 18:13:42;;;;;;;8.73;2.78;;;17.00;75.60;;;;;;10361594;28;20105;-61
2022/09/27 18:18:47;;;;;;;10.73;2.20;;;17.00;75.70;;;;;;10361476;28;20109;-61
2022/09/27 18:23:52;;;;;;;10.23;3.40;;;17.00;75.60;;;;;;10361188;28;20058;-63
2022/09/27 18:28:59;;;;;;;6.43;2.40;;;17.00;75.40;;;;;;10360354;28;20113;-63
2022/09/27 18:34:01;;;;;;;7.95;2.10;;;17.00;75.50;;;;;;10362200;28;20030;-62
2022/09/27 18:39:04;;;;;;;7.93;2.00;;;17.00;75.40;;;;;;10360501;28;20038;-63
2022/09/27 18:44:05;;;;;;;8.07;1.65;;;16.90;75.30;;;;;;10361105;28;20062;-63
2022/09/27 18:49:11;;;;;;;10.07;2.65;;;16.90;75.30;;;;;;10363291;28;20462;-62
2022/09/27 18:54:20;;;;;;;3.58;1.75;;;16.90;75.50;;;;;;10377083;28;20113;-63
2022/09/27 18:59:22;;;;;;;6.18;1.15;;;16.90;75.40;;;;;;10359737;28;20029;-63
2022/09/27 19:04:24;;;;;;;7.97;1.77;;;16.90;75.20;;;;;;10344520;28;20104;-63
2022/09/27 19:09:25;;;;;;;4.93;1.75;;;16.90;75.30;;;;;;10361000;28;20032;-63
2022/09/27 19:14:26;;;;;;;7.93;1.67;;;16.90;75.30;;;;;;10359401;28;20034;-61
2022/09/27 19:19:27;;;;;;;6.10;2.10;;;16.90;75.40;;;;;;10359892;28;20366;-61
2022/09/27 19:24:28;;;;;;;8.60;2.00;;;16.90;76.10;;;;;;10360739;28;20056;-61
2022/09/27 19:29:28;;;;;;;18.05;3.28;;;16.90;76.10;;;;;;10363168;28;20576;-62
2022/09/27 19:34:29;;;;;;;15.30;3.22;;;16.90;76.10;;;;;;10383105;28;20053;-61
2022/09/27 19:39:30;;;;;;;14.68;2.45;;;16.90;75.90;;;;;;10365867;28;20077;-62
2022/09/27 19:44:32;;;;;;;8.50;2.10;;;16.90;75.70;;;;;;10365911;28;20066;-61
2022/09/27 19:49:32;;;;;;;6.18;1.90;;;16.90;75.50;;;;;;10349443;28;20022;-62
2022/09/27 19:54:33;;;;;;;11.45;2.85;;;16.90;75.40;;;;;;10365030;28;20109;-61
2022/09/27 19:59:34;;;;;;;7.00;3.33;;;16.80;75.40;;;;;;10365419;28;20018;-62
2022/09/27 20:04:34;;;;;;;5.00;1.45;;;16.80;75.40;;;;;;10365857;28;20091;-61
2022/09/27 20:09:35;;;;;;;13.32;2.40;;;16.80;75.40;;;;;;10366715;28;20091;-61
2022/09/27 20:14:39;;;;;;;8.52;2.80;;;16.80;75.20;;;;;;10367514;28;20070;-62
2022/09/27 20:19:39;;;;;;;8.68;2.15;;;16.90;73.30;;;;;;10382356;28;20029;-63
2022/09/27 20:24:40;;;;;;;6.53;2.28;;;16.90;71.90;;;;;;10365625;28;20052;-61
2022/09/27 20:29:41;;;;;;;11.07;2.00;;;17.00;70.90;;;;;;10365267;28;20045;-61
2022/09/27 20:34:41;;;;;;;11.18;1.77;;;17.00;70.10;;;;;;10366219;28;20025;-61
2022/09/27 20:39:42;;;;;;;6.43;2.05;;;17.00;69.40;;;;;;10363899;28;20128;-62
2022/09/27 20:44:43;;;;;;;3.72;1.13;;;17.10;68.90;;;;;;10365483;28;20537;-62
2022/09/27 20:49:44;;;;;;;7.22;1.27;;;17.10;68.40;;;;;;10364936;28;20022;-62
2022/09/27 20:54:45;;;;;;;3.10;1.05;;;17.10;68.50;;;;;;10366320;28;20021;-62
2022/09/27 20:59:45;;;;;;;5.82;1.65;;;17.10;67.70;;;;;;10366555;28;20037;-61
2022/09/27 21:04:46;;;;;;;5.68;1.08;;;17.00;69.90;;;;;;10377333;28;20069;-63
2022/09/27 21:09:47;;;;;;;5.18;1.08;;;16.90;70.50;;;;;;10378901;28;20053;-62
2022/09/27 21:14:47;;;;;;;3.25;1.08;;;16.90;71.10;;;;;;10364025;28;20049;-62
2022/09/27 21:19:48;;;;;;;3.17;1.30;;;16.80;71.30;;;;;;10365638;28;20115;-62
2022/09/27 21:24:48;;;;;;;2.55;0.90;;;16.80;72.10;;;;;;10379881;28;20121;-61
2022/09/27 21:29:49;;;;;;;2.67;1.10;;;16.80;71.60;;;;;;10379800;28;20042;-61
2022/09/27 21:34:50;;;;;;;4.10;1.25;;;16.80;71.80;;;;;;10364722;28;20072;-62
2022/09/27 21:39:50;;;;;;;4.63;0.90;;;16.70;71.90;;;;;;10363513;28;20061;-62
2022/09/27 21:44:51;;;;;;;3.03;1.10;;;16.80;72.10;;;;;;10363647;28;20101;-62
2022/09/27 21:49:52;;;;;;;6.53;2.55;;;16.70;72.00;;;;;;10363492;28;20044;-62
2022/09/27 21:54:53;;;;;;;2.47;0.88;;;16.70;72.20;;;;;;10363396;28;20056;-61
2022/09/27 21:59:55;;;;;;;6.10;2.03;;;16.70;72.40;;;;;;10363063;28;20072;-62
2022/09/27 22:04:58;;;;;;;4.40;1.33;;;16.70;72.30;;;;;;10362907;28;20116;-62
2022/09/27 22:09:59;;;;;;;3.25;1.15;;;16.70;72.10;;;;;;10379789;28;20390;-62
2022/09/27 22:14:59;;;;;;;5.88;1.67;;;16.70;70.60;;;;;;10362630;28;20121;-62
2022/09/27 22:20:00;;;;;;;3.05;1.02;;;16.80;69.40;;;;;;10377542;28;20095;-62
2022/09/27 22:25:01;;;;;;;1.98;1.05;;;16.90;68.50;;;;;;10362479;28;20709;-61
2022/09/27 22:30:02;;;;;;;2.65;1.00;;;16.90;67.70;;;;;;10362380;28;20096;-62
2022/09/27 22:35:03;;;;;;;2.20;0.80;;;16.90;67.00;;;;;;10364001;28;20037;-61
2022/09/27 22:40:05;;;;;;;4.28;0.68;;;16.80;68.80;;;;;;10363809;28;20046;-62
2022/09/27 22:45:07;;;;;;;3.05;0.90;;;16.80;69.30;;;;;;10362265;28;20034;-62
2022/09/27 22:50:08;;;;;;;2.65;0.82;;;16.70;69.60;;;;;;10362063;28;20434;-62
2022/09/27 22:55:09;;;;;;;1.52;0.88;;;16.70;70.00;;;;;;10362625;28;20030;-62
2022/09/27 23:00:10;;;;;;;3.70;1.10;;;16.70;70.20;;;;;;10345577;28;20064;-61
2022/09/27 23:05:11;;;;;;;3.15;0.70;;;16.70;70.40;;;;;;10379380;28;20053;-61
2022/09/27 23:10:12;;;;;;;2.65;0.70;;;16.60;70.50;;;;;;10367387;28;20105;-62
2022/09/27 23:15:13;;;;;;;1.65;0.77;;;16.70;70.60;;;;;;10370629;28;20029;-61
2022/09/27 23:20:13;;;;;;;1.67;0.90;;;16.60;70.70;;;;;;10383633;28;20029;-61
2022/09/27 23:25:15;;;;;;;2.65;0.80;;;16.60;70.80;;;;;;10368939;28;20473;-61
2022/09/27 23:30:18;;;;;;;2.22;0.80;;;16.60;70.90;;;;;;10368407;28;20018;-63
2022/09/27 23:35:20;;;;;;;1.60;0.90;;;16.60;70.90;;;;;;10379601;28;20111;-62
2022/09/27 23:40:20;;;;;;;2.17;0.82;;;16.60;70.90;;;;;;10368217;28;20049;-62
2022/09/27 23:45:21;;;;;;;2.15;0.85;;;16.60;71.00;;;;;;10368005;28;20068;-61
2022/09/27 23:50:22;;;;;;;2.20;0.70;;;16.60;71.10;;;;;;10367492;28;20032;-62
2022/09/27 23:55:23;;;;;;;1.67;0.70;;;16.60;69.40;;;;;;10367383;28;20114;-61
